Bayway, Texas
Current Conditions -  °F | °C
As of 6:50 PM on Wednesday 22 Oct 2014 (Local Time) from KEFD Reporting Station
Few Clouds Few Clouds  
Wind Chill: 73°   Ceiling: Unl
Heat Index: 73°   Visibility: 10mi
Dew Point: 61°   Wind: 0mph
Humidity: 65%   Direction: NA
Pressure: 30.06"   Gusts: NA
Location:  29.7803°N, 94.894°W
Report Text: KEFD 222350Z 00000KT 10SM FEW060 23/16 A3006
Loading
Personal Weather Stations






























Interactive Weather Map
Tropical Storm Tracking
New forecast layout! Learn more

10-Day Weather Forecast

Advertisements
Track Severe Weather on mobile